Time;durP1;ratioP1;P1;durP2;ratioP2;P2;SDS_P1;SDS_P2;PMS_P1;PMS_P2;Temp;Humidity;BMP_temperature;BMP_pressure;BME280_temperature;BME280_humidity;BME280_pressure;Samples;Min_cycle;Max_cycle;Signal;HPM_P1;HPM_P2
2022/12/25 00:02:19;;;;;;;33.95;9.70;;;;;;;9.16;100.00;101444.13;5212954;28;20117;-80
2022/12/25 00:04:50;;;;;;;27.60;8.75;;;;;;;9.20;100.00;101442.88;5212648;28;20045;-80
2022/12/25 00:07:20;;;;;;;32.72;9.77;;;;;;;9.28;100.00;101429.59;5221103;28;20021;-80
2022/12/25 00:09:51;;;;;;;34.95;9.93;;;;;;;9.32;100.00;101423.81;5224785;28;20017;-80
2022/12/25 00:12:21;;;;;;;32.00;8.85;;;;;;;9.32;100.00;101420.28;5223866;28;20225;-80
2022/12/25 00:14:52;;;;;;;24.67;8.57;;;;;;;9.36;100.00;101418.19;5223880;28;21043;-80
2022/12/25 00:17:22;;;;;;;17.25;7.47;;;;;;;9.37;100.00;101412.66;5212678;28;20026;-79
2022/12/25 00:19:52;;;;;;;21.55;7.00;;;;;;;9.40;100.00;101422.25;5239218;28;20022;-80
2022/12/25 00:22:23;;;;;;;27.23;7.13;;;;;;;9.40;100.00;101422.25;5214648;28;20024;-80
2022/12/25 00:24:53;;;;;;;21.67;7.20;;;;;;;9.46;100.00;101416.31;5222691;28;20029;-80
2022/12/25 00:27:24;;;;;;;20.85;7.50;;;;;;;9.45;100.00;101420.84;5213028;28;20422;-80
2022/12/25 00:29:54;;;;;;;28.77;7.75;;;;;;;9.46;100.00;101427.03;5219381;28;20028;-80
2022/12/25 00:32:25;;;;;;;17.33;6.82;;;;;;;9.54;100.00;101424.47;5223550;28;20108;-80
2022/12/25 00:34:55;;;;;;;24.42;7.93;;;;;;;9.54;100.00;101419.97;5224462;28;20033;-80
2022/12/25 00:37:25;;;;;;;13.00;6.30;;;;;;;9.58;100.00;101415.97;5223926;28;20025;-80
2022/12/25 00:39:56;;;;;;;20.20;6.55;;;;;;;9.58;100.00;101418.66;5223219;28;20021;-80
2022/12/25 00:42:27;;;;;;;21.83;6.78;;;;;;;9.56;100.00;101414.44;5224033;28;20040;-81
2022/12/25 00:44:57;;;;;;;26.20;6.50;;;;;;;9.52;100.00;101416.56;5223532;28;20017;-81
2022/12/25 00:47:28;;;;;;;23.50;6.70;;;;;;;9.51;100.00;101414.88;5223831;28;20390;-80
2022/12/25 00:49:58;;;;;;;23.25;6.30;;;;;;;9.53;100.00;101412.06;5220404;28;20405;-80
2022/12/25 00:52:29;;;;;;;19.27;6.38;;;;;;;9.51;100.00;101417.56;5211402;28;20033;-80
2022/12/25 00:55:00;;;;;;;17.38;6.40;;;;;;;9.49;100.00;101416.88;5206858;28;20152;-80
2022/12/25 00:57:32;;;;;;;18.63;6.18;;;;;;;9.47;100.00;101408.13;5210238;28;20036;-80
2022/12/25 01:00:03;;;;;;;25.52;7.93;;;;;;;9.44;100.00;101408.44;5205961;28;20460;-80
2022/12/25 01:02:33;;;;;;;20.80;7.13;;;;;;;9.45;100.00;101410.13;5206211;28;20112;-80
2022/12/25 01:05:05;;;;;;;20.52;6.07;;;;;;;9.49;100.00;101403.50;5206158;28;20105;-81
2022/12/25 01:07:35;;;;;;;16.90;5.88;;;;;;;9.50;100.00;101401.66;5206095;28;20066;-81
2022/12/25 01:10:21;;;;;;;17.90;5.90;;;;;;;9.49;100.00;101384.75;5204712;28;20048;-80
2022/12/25 01:12:51;;;;;;;20.17;6.03;;;;;;;9.45;100.00;101394.06;5204514;28;20409;-80
2022/12/25 01:15:22;;;;;;;18.30;5.68;;;;;;;9.46;100.00;101393.06;5205666;28;20029;-80
2022/12/25 01:17:53;;;;;;;16.98;5.88;;;;;;;9.45;100.00;101402.09;5191276;28;20425;-80
2022/12/25 01:20:23;;;;;;;19.83;5.50;;;;;;;9.50;100.00;101401.66;5212243;28;20100;-80
2022/12/25 01:22:53;;;;;;;18.27;5.75;;;;;;;9.46;100.00;101403.75;5206309;28;20415;-80
2022/12/25 01:25:24;;;;;;;13.95;4.97;;;;;;;9.48;100.00;101398.25;5204921;28;20425;-81
2022/12/25 01:27:54;;;;;;;16.00;5.45;;;;;;;9.47;100.00;101394.72;5206023;28;20021;-80
2022/12/25 01:30:25;;;;;;;15.93;5.05;;;;;;;9.49;100.00;101400.81;5205807;28;20121;-80
2022/12/25 01:32:55;;;;;;;16.38;4.65;;;;;;;9.48;100.00;101403.63;5205357;28;20026;-80
2022/12/25 01:35:25;;;;;;;16.80;5.05;;;;;;;9.45;100.00;101398.56;5205420;28;20025;-80
2022/12/25 01:37:56;;;;;;;15.50;4.90;;;;;;;9.47;100.00;101407.28;5206421;28;20037;-80
2022/12/25 01:40:26;;;;;;;15.60;4.60;;;;;;;9.48;100.00;101417.84;5205035;28;20112;-80
2022/12/25 01:42:57;;;;;;;17.17;4.55;;;;;;;9.48;100.00;101414.31;5205246;28;20482;-80
2022/12/25 01:45:41;;;;;;;12.65;4.60;;;;;;;9.47;100.00;101424.19;5206318;28;20022;-81
2022/12/25 01:48:18;;;;;;;14.15;4.30;;;;;;;9.50;100.00;101423.06;5206153;28;20083;-80
2022/12/25 01:51:22;;;;;;;16.98;4.30;;;;;;;9.51;100.00;101420.25;5206410;28;20145;-80
2022/12/25 01:53:54;;;;;;;11.77;4.35;;;;;;;9.48;100.00;101419.69;5209219;28;20025;-80
2022/12/25 01:56:26;;;;;;;13.75;4.35;;;;;;;9.45;100.00;101415.47;5210322;28;20403;-80
2022/12/25 01:58:58;;;;;;;11.02;4.32;;;;;;;9.47;100.00;101418.00;5210309;28;20085;-80
2022/12/25 02:01:28;;;;;;;15.57;4.72;;;;;;;9.46;100.00;101424.34;5209666;28;20029;-80
2022/12/25 02:04:07;;;;;;;13.88;4.00;;;;;;;9.42;100.00;101425.63;5209212;28;20108;-80
2022/12/25 02:06:38;;;;;;;14.07;4.57;;;;;;;9.42;100.00;101436.34;5210531;28;20017;-80
2022/12/25 02:09:09;;;;;;;17.73;4.78;;;;;;;9.41;100.00;101440.84;5210608;28;20021;-80
2022/12/25 02:11:57;;;;;;;12.40;4.20;;;;;;;9.42;100.00;101444.38;5210017;28;20021;-80
2022/12/25 02:14:31;;;;;;;22.42;4.80;;;;;;;9.45;100.00;101449.44;5210584;28;20478;-80
2022/12/25 02:17:04;;;;;;;12.10;3.72;;;;;;;9.48;100.00;101458.03;5210567;28;20026;-80
2022/12/25 02:19:41;;;;;;;17.08;4.25;;;;;;;9.51;100.00;101451.53;5215061;28;20272;-81
2022/12/25 02:22:32;;;;;;;9.45;3.67;;;;;;;9.54;100.00;101449.44;5210575;28;20029;-81
2022/12/25 02:25:27;;;;;;;12.20;3.40;;;;;;;9.52;100.00;101451.38;5209157;28;20502;-80
2022/12/25 02:28:16;;;;;;;13.23;3.60;;;;;;;9.55;100.00;101452.94;5209316;28;20018;-80
2022/12/25 02:31:00;;;;;;;16.55;3.88;;;;;;;9.55;100.00;101452.94;5208660;28;20359;-80
2022/12/25 02:37:02;;;;;;;12.27;4.03;;;;;;;9.49;100.00;101443.66;5210453;28;20454;-80
2022/12/25 02:39:56;;;;;;;10.43;3.10;;;;;;;9.46;100.00;101449.28;5209946;28;20030;-80
2022/12/25 03:07:22;;;;;;;12.18;2.97;;;;;;;9.40;100.00;101396.31;5206995;28;20018;-80
2022/12/25 03:13:13;;;;;;;15.27;3.13;;;;;;;9.36;100.00;101367.28;5206427;28;20021;-80
2022/12/25 03:18:34;;;;;;;10.00;2.75;;;;;;;9.37;100.00;101375.19;5205975;28;20026;-80
2022/12/25 03:26:54;;;;;;;12.45;3.70;;;;;;;9.31;100.00;101344.47;5207184;28;20104;-80
2022/12/25 03:32:38;;;;;;;8.35;2.63;;;;;;;9.27;100.00;101348.44;5221337;28;20029;-80
2022/12/25 03:35:24;;;;;;;10.82;2.35;;;;;;;9.22;100.00;101349.84;5223349;28;20025;-80
2022/12/25 04:36:08;;;;;;;5.82;2.40;;;;;;;9.36;100.00;101325.28;5216812;28;20413;-80
2022/12/25 04:38:40;;;;;;;7.68;2.28;;;;;;;9.32;100.00;101324.75;5213153;28;20021;-80
2022/12/25 04:41:12;;;;;;;8.13;2.58;;;;;;;9.31;100.00;101315.03;5213407;28;20025;-80
2022/12/25 04:43:42;;;;;;;11.82;2.83;;;;;;;9.31;100.00;101323.06;5212016;28;20021;-80
2022/12/25 04:46:13;;;;;;;13.18;2.65;;;;;;;9.34;100.00;101320.09;5210019;28;20033;-80
2022/12/25 04:48:44;;;;;;;12.10;2.95;;;;;;;9.32;100.00;101322.06;5213208;28;20044;-80
2022/12/25 04:51:22;;;;;;;14.27;2.75;;;;;;;9.37;100.00;101324.28;5212026;28;20029;-80
2022/12/25 04:53:53;;;;;;;14.15;2.85;;;;;;;9.36;100.00;101322.63;5210861;28;20029;-80
2022/12/25 04:56:24;;;;;;;6.80;2.60;;;;;;;9.33;100.00;101321.06;5211536;28;20025;-80
2022/12/25 04:58:54;;;;;;;8.82;2.60;;;;;;;9.32;100.00;101319.38;5209862;28;20021;-80
2022/12/25 05:01:25;;;;;;;8.75;2.90;;;;;;;9.32;100.00;101307.81;5205962;28;20017;-80
2022/12/25 05:03:55;;;;;;;10.10;2.88;;;;;;;9.31;100.00;101315.03;5206212;28;20025;-80
2022/12/25 05:06:26;;;;;;;9.18;2.72;;;;;;;9.34;100.00;101320.09;5207211;28;20080;-79
2022/12/25 05:08:57;;;;;;;10.27;3.55;;;;;;;9.31;100.00;101312.34;5206534;28;20033;-79
2022/12/25 05:11:27;;;;;;;11.35;2.72;;;;;;;9.29;100.00;101317.00;5206721;28;20029;-79
2022/12/25 05:13:58;;;;;;;12.27;2.90;;;;;;;9.35;100.00;101318.25;5205704;28;20036;-79
2022/12/25 05:16:28;;;;;;;9.10;2.95;;;;;;;9.34;100.00;101321.94;5203313;28;20383;-79
2022/12/25 05:18:59;;;;;;;14.27;3.13;;;;;;;9.32;100.00;101318.53;5200655;28;20033;-79
2022/12/25 05:21:29;;;;;;;14.90;3.22;;;;;;;9.33;100.00;101313.03;5209263;28;20024;-79
2022/12/25 05:24:00;;;;;;;17.02;3.70;;;;;;;9.30;100.00;101305.31;5206610;28;20021;-79
2022/12/25 05:26:30;;;;;;;11.10;3.35;;;;;;;9.29;100.00;101302.78;5207478;28;20037;-79
2022/12/25 05:29:01;;;;;;;10.90;3.08;;;;;;;9.29;100.00;101297.44;5206427;28;20032;-80
2022/12/25 05:31:31;;;;;;;13.40;3.45;;;;;;;9.30;100.00;101291.91;5206146;28;20033;-79
2022/12/25 05:34:02;;;;;;;8.95;3.03;;;;;;;9.37;100.00;101288.66;5206250;28;20116;-79
2022/12/25 05:36:32;;;;;;;12.82;4.25;;;;;;;9.35;100.00;101288.81;5205935;28;20031;-79
2022/12/25 05:39:03;;;;;;;8.55;3.10;;;;;;;9.38;100.00;101291.16;5206695;28;20017;-79
2022/12/25 05:41:33;;;;;;;9.07;3.72;;;;;;;9.38;100.00;101282.28;5205904;28;20029;-79
2022/12/25 05:44:04;;;;;;;11.35;3.40;;;;;;;9.41;100.00;101284.69;5206862;28;20037;-79
2022/12/25 05:46:34;;;;;;;10.77;3.33;;;;;;;9.42;100.00;101278.34;5205238;28;20039;-79
2022/12/25 05:49:05;;;;;;;9.95;3.80;;;;;;;9.38;100.00;101272.41;5207379;28;20029;-79
2022/12/25 05:51:35;;;;;;;7.82;3.13;;;;;;;9.38;100.00;101268.91;5206399;28;20024;-79
2022/12/25 05:54:05;;;;;;;14.43;3.80;;;;;;;9.33;100.00;101261.31;5206876;28;20025;-79
2022/12/25 05:56:36;;;;;;;13.38;3.53;;;;;;;9.38;100.00;101272.41;5206682;28;20159;-79
2022/12/25 05:59:07;;;;;;;8.75;3.25;;;;;;;9.37;100.00;101265.38;5206605;28;20478;-79
2022/12/25 06:01:37;;;;;;;13.20;3.97;;;;;;;9.42;100.00;101263.09;5207052;28;20026;-79
2022/12/25 06:04:07;;;;;;;11.45;3.63;;;;;;;9.42;100.00;101240.84;5205939;28;20017;-79
2022/12/25 06:06:38;;;;;;;12.45;4.22;;;;;;;9.41;100.00;101240.00;5210375;28;20044;-79
2022/12/25 06:09:12;;;;;;;12.15;3.72;;;;;;;9.39;100.00;101236.66;5210346;28;20025;-79
2022/12/25 06:11:42;;;;;;;13.88;5.00;;;;;;;9.38;100.00;101226.91;5209914;28;20029;-79
2022/12/25 06:14:14;;;;;;;13.52;3.47;;;;;;;9.42;100.00;101230.13;5211039;28;20033;-79
2022/12/25 06:16:44;;;;;;;10.57;3.58;;;;;;;9.36;100.00;101226.22;5210236;28;20060;-79
2022/12/25 06:19:15;;;;;;;13.82;3.85;;;;;;;9.39;100.00;101193.81;5216327;28;20021;-80
2022/12/25 06:21:45;;;;;;;11.05;3.40;;;;;;;9.38;100.00;101189.41;5209549;28;20529;-80
2022/12/25 06:24:16;;;;;;;10.15;3.70;;;;;;;9.33;100.00;101181.00;5209319;28;20021;-81
2022/12/25 06:26:46;;;;;;;14.90;3.83;;;;;;;9.29;100.00;101175.13;5210368;28;20024;-80
2022/12/25 06:29:17;;;;;;;12.95;3.67;;;;;;;9.27;100.00;101170.88;5211115;28;20084;-80
2022/12/25 06:31:48;;;;;;;9.00;3.30;;;;;;;9.24;100.00;101163.16;5210646;28;20033;-80
2022/12/25 06:34:18;;;;;;;10.18;3.97;;;;;;;9.23;100.00;101161.47;5208980;28;20017;-80
2022/12/25 06:36:49;;;;;;;10.73;4.13;;;;;;;9.27;100.00;101168.22;5210672;28;20509;-80
2022/12/25 06:39:24;;;;;;;12.65;4.00;;;;;;;9.24;100.00;101174.72;5207376;28;20113;-82
2022/12/25 06:41:55;;;;;;;10.00;4.00;;;;;;;9.21;100.00;101158.09;5200342;28;20056;-79
2022/12/25 06:44:25;;;;;;;9.70;3.65;;;;;;;9.18;100.00;101156.56;5210267;28;20044;-81
2022/12/25 06:46:56;;;;;;;13.68;3.80;;;;;;;9.14;100.00;101160.56;5209124;28;20471;-80
2022/12/25 06:49:26;;;;;;;13.35;4.50;;;;;;;9.12;100.00;101167.03;5209286;28;20018;-78
2022/12/25 06:51:57;;;;;;;7.40;3.55;;;;;;;9.15;100.00;101153.34;5208003;28;20021;-80
2022/12/25 06:54:27;;;;;;;10.75;3.90;;;;;;;9.13;100.00;101136.59;5208956;28;20112;-80
2022/12/25 06:56:58;;;;;;;12.60;4.07;;;;;;;9.14;100.00;101154.34;5208721;28;20037;-82
2022/12/25 06:59:28;;;;;;;9.73;3.92;;;;;;;9.15;100.00;101145.31;5208524;28;20205;-81
2022/12/25 07:01:59;;;;;;;13.20;3.67;;;;;;;9.14;100.00;101149.84;5209340;28;20025;-81
2022/12/25 07:04:37;;;;;;;11.32;3.75;;;;;;;9.17;100.00;101137.97;5209393;28;20017;-80
2022/12/25 07:07:08;;;;;;;8.90;3.20;;;;;;;9.17;100.00;101132.63;5209342;28;20023;-81
2022/12/25 07:09:41;;;;;;;7.88;3.38;;;;;;;9.16;100.00;101134.47;5210065;28;20029;-81
2022/12/25 07:12:18;;;;;;;8.68;3.28;;;;;;;9.14;100.00;101135.63;5211713;28;20037;-80
2022/12/25 07:14:49;;;;;;;10.15;3.72;;;;;;;9.13;100.00;101142.78;5212200;28;20025;-82
2022/12/25 07:17:19;;;;;;;8.60;3.08;;;;;;;9.17;100.00;101138.81;5212719;28;20033;-81
2022/12/25 07:19:50;;;;;;;5.68;2.63;;;;;;;9.15;100.00;101139.97;5219360;28;20056;-80
2022/12/25 07:22:20;;;;;;;6.55;2.72;;;;;;;9.14;100.00;101152.53;5212782;28;20048;-81
2022/12/25 07:24:50;;;;;;;11.32;3.17;;;;;;;9.16;100.00;101147.00;5213067;28;20048;-82
2022/12/25 07:27:21;;;;;;;12.90;2.90;;;;;;;9.16;100.00;101152.34;5212535;28;20025;-81
2022/12/25 07:29:51;;;;;;;8.65;2.88;;;;;;;9.15;100.00;101164.06;5212835;28;20033;-81
2022/12/25 07:32:22;;;;;;;7.13;2.67;;;;;;;9.12;100.00;101180.41;5212788;28;20025;-81
2022/12/25 07:34:52;;;;;;;9.20;2.83;;;;;;;9.11;100.00;101178.72;5211918;28;20033;-82
2022/12/25 07:37:24;;;;;;;6.78;2.92;;;;;;;9.05;100.00;101170.31;5212881;28;20501;-82
2022/12/25 07:39:54;;;;;;;9.88;3.13;;;;;;;8.98;100.00;101190.59;5212316;28;20033;-82
2022/12/25 07:42:24;;;;;;;8.80;3.28;;;;;;;8.95;100.00;101204.28;5213583;28;20029;-81
2022/12/25 07:44:55;;;;;;;6.05;2.78;;;;;;;8.99;100.00;101215.56;5212182;28;20029;-80
2022/12/25 07:47:25;;;;;;;8.55;2.92;;;;;;;9.00;100.00;101238.66;5211405;28;20693;-81
2022/12/25 07:49:56;;;;;;;8.25;2.67;;;;;;;8.96;100.00;101226.53;5211444;28;20478;-82
2022/12/25 07:52:26;;;;;;;13.93;3.20;;;;;;;8.92;100.00;101217.13;5210207;28;20047;-82
2022/12/25 07:54:56;;;;;;;7.07;2.95;;;;;;;8.90;100.00;101224.47;5209475;28;20043;-81
2022/12/25 07:57:28;;;;;;;5.40;2.80;;;;;;;8.96;100.00;101223.88;5210347;28;20021;-81
2022/12/25 07:59:59;;;;;;;9.50;3.35;;;;;;;8.92;100.00;101219.78;5209865;28;20429;-81
2022/12/25 08:02:30;;;;;;;13.00;3.00;;;;;;;8.89;100.00;101215.59;5210538;28;20025;-82
2022/12/25 08:05:01;;;;;;;8.32;3.08;;;;;;;8.95;100.00;101224.88;5209160;28;20563;-81
2022/12/25 08:07:31;;;;;;;12.30;3.13;;;;;;;8.93;100.00;101221.47;5211068;28;20029;-81
2022/12/25 08:10:02;;;;;;;11.90;3.78;;;;;;;8.93;100.00;101233.00;5209580;28;20039;-81
2022/12/25 08:12:32;;;;;;;7.75;3.38;;;;;;;8.91;100.00;101250.22;5210760;28;20482;-82
2022/12/25 08:15:03;;;;;;;7.65;3.00;;;;;;;8.89;100.00;101270.94;5210585;28;20092;-81
2022/12/25 08:17:34;;;;;;;6.65;2.90;;;;;;;8.87;100.00;101281.75;5210568;28;20032;-82
2022/12/25 08:20:05;;;;;;;10.70;3.05;;;;;;;8.85;100.00;101273.06;5216185;28;20040;-81
2022/12/25 08:22:37;;;;;;;12.88;4.70;;;;;;;8.85;100.00;101269.53;5209061;28;20017;-81
2022/12/25 08:25:08;;;;;;;9.63;3.08;;;;;;;8.81;100.00;101266.28;5209728;28;20018;-81
2022/12/25 08:27:53;;;;;;;7.88;2.63;;;;;;;8.77;100.00;101267.56;5209891;28;20039;-81
2022/12/25 08:30:23;;;;;;;16.75;3.65;;;;;;;8.75;100.00;101253.50;5209837;28;20030;-82
2022/12/25 08:32:54;;;;;;;16.08;4.22;;;;;;;8.75;100.00;101245.47;5209155;28;20056;-82
2022/12/25 08:35:25;;;;;;;12.43;4.43;;;;;;;8.74;100.00;101233.94;5209660;28;20124;-83
2022/12/25 08:37:56;;;;;;;8.93;3.83;;;;;;;8.73;100.00;101224.19;5210232;28;20048;-83
2022/12/25 08:40:27;;;;;;;13.30;4.53;;;;;;;8.71;100.00;101217.31;5209407;28;20032;-82
2022/12/25 08:42:58;;;;;;;12.52;5.35;;;;;;;8.72;100.00;101227.88;5196865;28;20075;-85
2022/12/25 08:45:28;;;;;;;13.10;5.55;;;;;;;8.71;100.00;101217.31;5207366;28;20100;-82
2022/12/25 08:47:59;;;;;;;11.32;4.70;;;;;;;8.71;100.00;101231.53;5208467;28;20072;-82
2022/12/25 08:50:29;;;;;;;13.38;6.22;;;;;;;8.70;100.00;101223.66;5209410;28;20178;-83
2022/12/25 08:52:59;;;;;;;13.18;5.43;;;;;;;8.74;100.00;101201.00;5206336;28;20144;-82
2022/12/25 08:55:30;;;;;;;19.27;5.22;;;;;;;8.72;100.00;101203.81;5205711;28;20018;-83
2022/12/25 08:58:00;;;;;;;17.27;6.05;;;;;;;8.69;100.00;101201.44;5205828;28;20556;-82
2022/12/25 09:00:31;;;;;;;9.15;4.78;;;;;;;8.70;100.00;101205.78;5205266;28;20025;-84
2022/12/25 09:03:02;;;;;;;9.95;5.32;;;;;;;8.73;100.00;101207.31;5204807;28;20017;-83
2022/12/25 09:05:34;;;;;;;15.05;6.25;;;;;;;8.75;100.00;101203.53;5204282;28;20026;-83
2022/12/25 09:08:05;;;;;;;11.60;6.18;;;;;;;8.75;100.00;101210.72;5205281;28;20068;-83
2022/12/25 09:10:36;;;;;;;11.48;6.82;;;;;;;8.75;100.00;101208.88;5205391;28;20506;-83
2022/12/25 09:13:06;;;;;;;16.73;6.63;;;;;;;8.77;100.00;101217.56;5204374;28;20025;-83
2022/12/25 09:15:38;;;;;;;15.15;6.25;;;;;;;8.81;100.00;101210.13;5205392;28;20025;-83
2022/12/25 09:18:09;;;;;;;19.83;7.63;;;;;;;8.83;100.00;101208.13;5204491;28;20021;-83
2022/12/25 09:20:39;;;;;;;18.67;7.03;;;;;;;8.84;100.00;101222.38;5211463;28;20026;-83
2022/12/25 09:23:10;;;;;;;14.30;7.28;;;;;;;8.86;100.00;101210.53;5204898;28;20024;-83
2022/12/25 09:25:40;;;;;;;16.85;7.30;;;;;;;8.85;100.00;101214.19;5204641;28;20180;-82
2022/12/25 09:28:11;;;;;;;14.13;6.63;;;;;;;8.84;100.00;101211.66;5205650;28;20029;-82
2022/12/25 09:30:41;;;;;;;17.52;6.18;;;;;;;8.85;100.00;101208.00;5205284;28;20056;-81
2022/12/25 09:33:12;;;;;;;20.15;6.93;;;;;;;8.84;100.00;101199.13;5204290;28;20075;-81
2022/12/25 09:35:42;;;;;;;16.25;7.35;;;;;;;8.87;100.00;101185.44;5206047;28;20029;-78
2022/12/25 09:38:13;;;;;;;20.25;7.50;;;;;;;8.88;100.00;101181.78;5206114;28;20109;-80
2022/12/25 09:40:43;;;;;;;21.95;6.82;;;;;;;8.89;100.00;101172.78;5206324;28;20025;-80
2022/12/25 09:43:25;;;;;;;16.73;6.63;;;;;;;8.92;100.00;101176.97;5205936;28;20025;-82
2022/12/25 09:45:59;;;;;;;16.75;7.68;;;;;;;8.96;100.00;101167.66;5204215;28;20063;-83
2022/12/25 09:48:34;;;;;;;19.30;8.30;;;;;;;8.97;100.00;101164.84;5204860;28;20032;-83
2022/12/25 09:51:11;;;;;;;22.58;9.23;;;;;;;8.99;100.00;101160.19;5205582;28;20474;-82
2022/12/25 09:53:50;;;;;;;19.67;9.18;;;;;;;9.05;100.00;101162.28;5204359;28;20643;-82
2022/12/25 09:56:24;;;;;;;24.23;8.90;;;;;;;8.99;100.00;101162.88;5205668;28;20025;-83
2022/12/25 09:58:55;;;;;;;24.05;8.80;;;;;;;9.01;100.00;101160.03;5206140;28;20049;-82
2022/12/25 10:01:28;;;;;;;20.15;10.13;;;;;;;8.98;100.00;101166.50;5204662;28;20045;-82
2022/12/25 10:04:02;;;;;;;21.33;10.00;;;;;;;8.95;100.00;101161.47;5205114;28;20025;-83
2022/12/25 10:06:53;;;;;;;23.65;10.48;;;;;;;8.91;100.00;101153.91;5204458;28;20025;-83
2022/12/25 10:09:30;;;;;;;19.83;10.05;;;;;;;9.01;100.00;101139.47;5203760;28;20584;-83
2022/12/25 10:12:48;;;;;;;24.10;10.05;;;;;;;9.04;100.00;101144.53;5204719;28;20021;-83
2022/12/25 10:15:53;;;;;;;22.67;10.20;;;;;;;9.08;100.00;101134.34;5204266;28;20036;-85
2022/12/25 10:18:37;;;;;;;25.25;10.40;;;;;;;9.11;100.00;101130.56;5203919;28;20112;-84
2022/12/25 10:21:12;;;;;;;30.38;10.70;;;;;;;9.12;100.00;101137.59;5203838;28;20539;-84
2022/12/25 10:23:47;;;;;;;27.23;10.30;;;;;;;9.11;100.00;101133.22;5209391;28;20437;-84
2022/12/25 10:26:20;;;;;;;24.05;10.77;;;;;;;9.13;100.00;101120.53;5206823;28;20031;-84
2022/12/25 10:29:12;;;;;;;19.58;9.60;;;;;;;9.05;100.00;101129.31;5208242;28;20025;-84
2022/12/25 10:31:45;;;;;;;22.90;11.65;;;;;;;9.12;100.00;101130.41;5206859;28;20033;-85
2022/12/25 10:34:16;;;;;;;26.02;10.50;;;;;;;9.14;100.00;101132.94;5207580;28;20453;-84
2022/12/25 10:36:47;;;;;;;24.88;11.30;;;;;;;9.15;100.00;101130.09;5207840;28;20089;-84
2022/12/25 10:39:23;;;;;;;25.08;12.27;;;;;;;9.15;100.00;101124.75;5207097;28;20509;-82
2022/12/25 10:42:09;;;;;;;26.35;12.80;;;;;;;9.14;100.00;101127.59;5207474;28;20037;-82
2022/12/25 10:44:39;;;;;;;;;;;;;;;9.17;100.00;101121.91;5207932;28;20036;-83
2022/12/25 10:47:10;;;;;;;30.00;11.57;;;;;;;9.18;100.00;101118.25;5209160;28;19909;-83
2022/12/25 10:49:40;;;;;;;31.75;13.25;;;;;;;9.20;100.00;101121.63;5209042;28;20119;-84
2022/12/25 10:52:20;;;;;;;31.27;14.35;;;;;;;9.21;100.00;101110.75;5206555;28;20405;-84
2022/12/25 10:54:51;;;;;;;38.35;17.45;;;;;;;9.22;100.00;101103.56;5207544;28;20022;-82
2022/12/25 10:57:24;;;;;;;30.02;16.20;;;;;;;9.26;100.00;101103.13;5208786;28;20076;-82
2022/12/25 10:59:56;;;;;;;35.53;15.23;;;;;;;9.24;100.00;101091.72;5210156;28;20045;-82
2022/12/25 11:02:29;;;;;;;36.58;16.58;;;;;;;9.29;100.00;101085.94;5208981;28;20088;-82
2022/12/25 11:05:07;;;;;;;35.95;16.48;;;;;;;9.31;100.00;101084.75;5209644;28;20478;-82
2022/12/25 11:07:53;;;;;;;38.42;16.13;;;;;;;9.32;100.00;101065.03;5209746;28;20032;-82
2022/12/25 11:10:34;;;;;;;31.15;12.63;;;;;;;9.33;100.00;101063.19;5209658;28;20029;-82
2022/12/25 11:13:06;;;;;;;25.23;11.82;;;;;;;9.36;100.00;101059.38;5208461;28;20026;-81
2022/12/25 11:16:02;;;;;;;27.83;13.43;;;;;;;9.37;100.00;101053.00;5209861;28;20097;-82
2022/12/25 11:18:43;;;;;;;32.35;14.05;;;;;;;9.38;100.00;101050.19;5209109;28;20029;-81
2022/12/25 11:21:25;;;;;;;26.30;14.18;;;;;;;9.40;100.00;101053.56;5203641;28;20037;-82
2022/12/25 11:24:19;;;;;;;28.38;13.05;;;;;;;9.41;100.00;101051.72;5208365;28;20513;-81
2022/12/25 11:26:52;;;;;;;30.38;13.77;;;;;;;9.43;100.00;101047.03;5206937;28;20037;-81
2022/12/25 11:29:29;;;;;;;35.97;14.70;;;;;;;9.40;100.00;101055.41;5207006;28;20686;-81
2022/12/25 11:32:01;;;;;;;30.38;13.73;;;;;;;9.34;100.00;101056.84;5205488;28;20022;-81
2022/12/25 11:34:45;;;;;;;37.33;14.20;;;;;;;9.32;100.00;101050.78;5206235;28;20032;-82
2022/12/25 11:37:39;;;;;;;33.45;13.40;;;;;;;9.41;100.00;101041.00;5206703;28;20033;-81
2022/12/25 11:40:35;;;;;;;32.35;14.23;;;;;;;9.46;100.00;101039.53;5205411;28;20056;-82
2022/12/25 11:43:19;;;;;;;;;;;;;;;9.45;100.00;101031.69;5204455;28;20448;-82
2022/12/25 11:45:58;;;;;;;32.97;14.48;;;;;;;9.43;100.00;101030.97;5206468;28;19913;-82
2022/12/25 11:48:43;;;;;;;27.48;12.43;;;;;;;9.47;100.00;101027.00;5204911;28;20026;-82
2022/12/25 11:51:15;;;;;;;29.53;14.07;;;;;;;9.49;100.00;101027.69;5204923;28;20029;-82
2022/12/25 11:53:54;;;;;;;32.30;14.73;;;;;;;9.48;100.00;101039.38;5205289;28;20283;-83
2022/12/25 11:56:28;;;;;;;29.45;13.27;;;;;;;9.43;100.00;101034.50;5207743;28;20029;-82
2022/12/25 11:59:08;;;;;;;31.75;13.98;;;;;;;9.34;100.00;101033.59;5208760;28;20029;-82
2022/12/25 12:01:47;;;;;;;32.83;14.00;;;;;;;9.40;100.00;101032.13;5203405;28;20033;-82
2022/12/25 12:04:26;;;;;;;35.05;12.75;;;;;;;9.43;100.00;101020.25;5210235;28;20045;-82
2022/12/25 12:07:17;;;;;;;36.13;15.18;;;;;;;9.43;100.00;101010.38;5210334;28;20437;-82
2022/12/25 12:09:59;;;;;;;31.85;13.90;;;;;;;9.45;100.00;101004.91;5207608;28;20037;-82
2022/12/25 12:12:51;;;;;;;28.08;13.93;;;;;;;9.46;100.00;100998.53;5208863;28;20030;-83
2022/12/25 12:15:37;;;;;;;33.08;15.68;;;;;;;9.48;100.00;101000.06;5209239;28;20041;-82
2022/12/25 12:18:32;;;;;;;36.70;14.95;;;;;;;9.50;100.00;100998.06;5208708;28;20482;-82
2022/12/25 12:21:03;;;;;;;30.95;15.40;;;;;;;9.51;100.00;100997.06;5214049;28;20043;-82
2022/12/25 12:23:50;;;;;;;29.58;14.27;;;;;;;9.51;100.00;101002.44;5208550;28;20033;-82
2022/12/25 12:26:24;;;;;;;26.20;12.60;;;;;;;9.54;100.00;101003.97;5209133;28;20025;-83
2022/12/25 12:29:00;;;;;;;26.30;13.80;;;;;;;9.53;100.00;101002.25;5209866;28;20466;-84
2022/12/25 12:31:44;;;;;;;34.17;14.02;;;;;;;9.52;100.00;101009.47;5207882;28;20104;-82
2022/12/25 12:34:26;;;;;;;28.42;13.48;;;;;;;9.51;100.00;101006.94;5208424;28;20029;-86
2022/12/25 12:37:16;;;;;;;29.77;13.80;;;;;;;9.51;100.00;100991.72;5208230;28;20179;-82
2022/12/25 12:39:52;;;;;;;34.05;15.57;;;;;;;9.54;100.00;100990.59;5208765;28;20033;-82
2022/12/25 12:42:27;;;;;;;30.38;14.60;;;;;;;9.57;100.00;100982.22;5211071;28;20434;-82
2022/12/25 12:45:09;;;;;;;30.48;14.38;;;;;;;9.58;100.00;100970.50;5209295;28;20060;-82
2022/12/25 12:47:43;;;;;;;26.98;13.85;;;;;;;9.58;100.00;100973.19;5211586;28;20018;-82
2022/12/25 12:50:39;;;;;;;32.63;15.63;;;;;;;9.58;100.00;100971.34;5210104;28;20029;-82
2022/12/25 12:53:28;;;;;;;26.92;13.00;;;;;;;9.60;100.00;100961.31;5208754;28;20108;-82
2022/12/25 12:56:17;;;;;;;25.67;13.45;;;;;;;9.57;100.00;100950.91;5210308;28;20060;-81
2022/12/25 12:58:49;;;;;;;34.45;14.35;;;;;;;9.55;100.00;100950.25;5210549;28;20025;-82
2022/12/25 13:01:26;;;;;;;30.20;14.55;;;;;;;9.54;100.00;100951.25;5207303;28;20026;-82
2022/12/25 13:04:31;;;;;;;29.45;15.00;;;;;;;9.53;100.00;100957.56;5208999;28;20026;-82
2022/12/25 13:07:11;;;;;;;35.58;16.02;;;;;;;9.49;100.00;100950.88;5211705;28;20061;-82
2022/12/25 13:09:51;;;;;;;34.40;16.73;;;;;;;9.44;100.00;100931.75;5209471;28;20051;-82
2022/12/25 13:12:22;;;;;;;43.50;18.13;;;;;;;9.51;100.00;100938.16;5209763;28;20029;-82
2022/12/25 13:14:53;;;;;;;30.77;13.93;;;;;;;9.55;100.00;100936.00;5211096;28;20017;-81
2022/12/25 13:17:25;;;;;;;30.02;14.25;;;;;;;9.53;100.00;100920.06;5210321;28;20022;-82
2022/12/25 13:19:57;;;;;;;29.40;14.10;;;;;;;9.56;100.00;100917.09;5216492;28;20029;-82
2022/12/25 13:22:33;;;;;;;34.33;13.38;;;;;;;9.52;100.00;100918.41;5210657;28;20028;-82
2022/12/25 13:25:15;;;;;;;31.08;13.43;;;;;;;9.51;100.00;100916.72;5210940;28;20479;-82
2022/12/25 13:27:54;;;;;;;24.80;12.70;;;;;;;9.48;100.00;100911.69;5209601;28;20021;-82
2022/12/25 13:30:25;;;;;;;26.75;13.32;;;;;;;9.47;100.00;100898.44;5209512;28;20542;-82
2022/12/25 13:32:58;;;;;;;26.48;14.13;;;;;;;9.48;100.00;100890.25;5208071;28;20037;-81